Airfield :
LOGIN :

Register | Disclaimer

   EN    FR    IT 

 










Legend :    VFR   Marginal VFR   IFR   Intensive IFR   Very Intensive IFR
Visi :
Ceiling :
>= 8 km
>= 3000ft
5 to 8 km
1000 to 3000 ft
1500m to 5 km
500 to 1000 ft
800 to 1500m
200 to 500 ft
< 800m
< 200 ft
Symbols :   Thunderstorms  Fog  Heavy snow  Heavy precipitations  Wind > 20 kt
SIGMETs :     Misc.  Thunderstorms  Icing  Turbulence  Mountain Waves  Volcanic Ashes







- Airport Elevation : 614 ft
- IATA code : CRL


EBCI - Charleroi

CURRENT METAR :
  • 222350Z 23008KT 9999 FEW036 BKN048 08/06 Q1018 NOSIG

EXPIRED METARs :
  • 222320Z 24007KT 9999 BKN045 08/05 Q1018 NOSIG
  • 222220Z 24008KT 9999 BKN044 08/05 Q1018 NOSIG
  • 222150Z 23009KT 9999 BKN044 09/05 Q1018 NOSIG
  • 222120Z 22008KT 9999 BKN044 09/05 Q1017 NOSIG

TAF TAF EBCI
Valid from the 23 at 00:00 until the 24 at 06:00 UTC


222300Z 2300/2406 25008KT 9999 FEW020 BKN040
BECMG 2313/2315 4000 -RADZ BR SCT005 BKN008
TEMPO 2318/2401 2000 DZRA BKN003
PROB40
TEMPO 2401/2406 1500 BR BKN002
No reported NOTAMs for that airfield.



MET'MAP, your aeronautical weather chart ! - Copyright ORBIFLY December 2007 - Disclaimer

ORBIFLY MET'MAP TEAM :

Programming & Development : Alexandra Zaïnal
Concept & Development : Baudouin d'Aumeries
Co-Development & Prog : Marc-Olivier Méhu
Technical & hardware support : Manuel Goepfert

Contact : metmap@orbifly.com




SOURCES & CREDITS :

   NOAA